Time,TemperatureF,DewpointF,PressureIn,WindDirection,WindDirectionDegrees,WindSpeedMPH,WindSpeedGustMPH,Humidity,HourlyPrecipIn,Conditions,Clouds,dailyrainin,SolarRadiationWatts/m^2,SoftwareType,DateUTC
2013-04-02 00:02:00,37.0,34.0,30.09,WSW,248,4.0,6.0,91,-99.99,,,-99.99,0.000000,,2013-04-02 07:02:00,
2013-04-02 00:43:00,37.0,34.0,30.09,North,-999,0.0,0.0,90,-99.99,,,-99.99,0.000000,,2013-04-02 07:43:00,
2013-04-02 00:52:00,37.0,34.0,30.09,ENE,68,0.0,2.0,90,-99.99,,,-99.99,0.000000,,2013-04-02 07:52:00,
2013-04-02 01:02:00,37.0,34.0,30.08,ENE,77,2.0,3.0,90,-99.99,,,-99.99,0.000000,,2013-04-02 08:02:00,
2013-04-02 01:12:00,37.0,35.0,30.09,ENE,77,1.0,3.0,91,-99.99,,,-99.99,0.000000,,2013-04-02 08:12:00,
2013-04-02 01:22:00,37.0,35.0,30.09,ENE,77,1.0,3.0,91,-99.99,,,-99.99,0.000000,,2013-04-02 08:22:00,
2013-04-02 01:32:00,37.0,35.0,30.09,ENE,67,1.0,3.0,91,-99.99,,,-99.99,0.000000,,2013-04-02 08:32:00,
2013-04-02 01:42:00,37.0,35.0,30.09,NNE,15,0.0,3.0,91,-99.99,,,-99.99,0.000000,,2013-04-02 08:42:00,
2013-04-02 01:52:00,37.0,35.0,30.09,ENE,78,0.0,3.0,90,-99.99,,,-99.99,0.000000,,2013-04-02 08:52:00,
2013-04-02 02:02:00,37.0,35.0,30.09,ENE,65,0.0,1.0,90,-99.99,,,-99.99,0.000000,,2013-04-02 09:02:00,
2013-04-02 02:12:00,37.0,35.0,30.09,NNW,343,1.0,3.0,90,-99.99,,,-99.99,0.000000,,2013-04-02 09:12:00,
2013-04-02 02:22:00,37.0,35.0,30.09,NW,305,1.0,2.0,90,-99.99,,,-99.99,0.000000,,2013-04-02 09:22:00,
2013-04-02 02:32:00,37.0,35.0,30.09,WNW,295,1.0,3.0,90,-99.99,,,-99.99,0.000000,,2013-04-02 09:32:00,
2013-04-02 02:43:00,37.0,35.0,30.09,WNW,300,2.0,3.0,91,-99.99,,,-99.99,0.000000,,2013-04-02 09:43:00,
2013-04-02 02:52:00,37.0,35.0,30.09,WNW,300,2.0,4.0,91,-99.99,,,-99.99,0.000000,,2013-04-02 09:52:00,
2013-04-02 03:03:00,37.0,35.0,30.09,NW,318,1.0,3.0,91,-99.99,,,-99.99,0.000000,,2013-04-02 10:03:00,
2013-04-02 03:13:00,37.0,34.0,30.09,NNE,16,1.0,2.0,90,-99.99,,,-99.99,1.000000,,2013-04-02 10:13:00,
2013-04-02 03:23:00,37.0,35.0,30.08,ENE,57,1.0,2.0,90,-99.99,,,-99.99,2.000000,,2013-04-02 10:23:00,
2013-04-02 03:33:00,37.0,35.0,30.08,ENE,57,1.0,2.0,90,-99.99,,,-99.99,2.000000,,2013-04-02 10:33:00,
2013-04-02 03:42:00,37.0,35.0,30.08,NNE,30,1.0,3.0,92,-99.99,,,-99.99,1.000000,,2013-04-02 10:42:00,
2013-04-02 03:52:00,37.0,35.0,30.08,NNE,30,1.0,3.0,92,-99.99,,,-99.99,1.000000,,2013-04-02 10:52:00,
2013-04-02 04:02:00,37.0,35.0,30.08,NNE,20,1.0,2.0,91,-99.99,,,-99.99,1.000000,,2013-04-02 11:02:00,
2013-04-02 04:12:00,37.0,35.0,30.08,WSW,258,1.0,2.0,91,-99.99,,,-99.99,0.000000,,2013-04-02 11:12:00,
2013-04-02 04:22:00,37.0,35.0,30.08,WSW,251,2.0,2.0,91,-99.99,,,-99.99,0.000000,,2013-04-02 11:22:00,
2013-04-02 04:32:00,37.0,35.0,30.08,WSW,251,2.0,2.0,91,-99.99,,,-99.99,0.000000,,2013-04-02 11:32:00,
2013-04-02 04:42:00,37.0,35.0,30.08,West,268,2.0,3.0,93,-99.99,,,-99.99,0.000000,,2013-04-02 11:42:00,
2013-04-02 04:52:00,37.0,36.0,30.08,NNW,337,1.0,3.0,93,-99.99,,,-99.99,0.000000,,2013-04-02 11:52:00,
2013-04-02 05:02:00,37.0,36.0,30.08,NNW,337,1.0,3.0,93,-99.99,,,-99.99,0.000000,,2013-04-02 12:02:00,
2013-04-02 05:11:00,37.0,35.0,30.07,NW,316,2.0,3.0,93,-99.99,,,-99.99,3.000000,,2013-04-02 12:11:00,
2013-04-02 05:22:00,37.0,35.0,30.08,WNW,302,2.0,3.0,93,-99.99,,,-99.99,1.000000,,2013-04-02 12:22:00,
2013-04-02 05:32:00,37.0,35.0,30.08,WNW,302,2.0,3.0,93,-99.99,,,-99.99,1.000000,,2013-04-02 12:32:00,
2013-04-02 05:42:00,37.0,35.0,30.08,WNW,283,2.0,4.0,94,-99.99,,,-99.99,0.000000,,2013-04-02 12:42:00,
2013-04-02 05:52:00,37.0,35.0,30.08,WNW,283,2.0,4.0,94,-99.99,,,-99.99,0.000000,,2013-04-02 12:52:00,
2013-04-02 06:01:00,37.0,35.0,30.08,West,275,3.0,4.0,94,-99.99,,,-99.99,0.000000,,2013-04-02 13:01:00,
2013-04-02 06:12:00,37.0,36.0,30.08,WNW,292,3.0,4.0,94,-99.99,,,-99.99,0.000000,,2013-04-02 13:12:00,
2013-04-02 06:22:00,37.0,35.0,30.08,North,351,2.0,3.0,93,-99.99,,,-99.99,0.000000,,2013-04-02 13:22:00,
2013-04-02 06:32:00,37.0,36.0,30.09,NW,322,2.0,3.0,93,-99.99,,,-99.99,1.000000,,2013-04-02 13:32:00,
2013-04-02 06:40:00,38.0,35.0,30.10,NW,306,6.0,9.0,92,-99.99,,,-99.99,7.000000,,2013-04-02 13:40:00,
2013-04-02 06:42:00,37.0,35.0,30.09,North,3,3.0,4.0,92,-99.99,,,-99.99,1.000000,,2013-04-02 13:42:00,
2013-04-02 06:52:00,37.0,36.0,30.09,NNW,328,5.0,8.0,93,-99.99,,,-99.99,0.000000,,2013-04-02 13:52:00,
2013-04-02 07:02:00,37.0,36.0,30.09,NNW,328,5.0,8.0,93,-99.99,,,-99.99,0.000000,,2013-04-02 14:02:00,
2013-04-02 07:12:00,38.0,35.0,30.09,NW,315,7.0,8.0,91,-99.99,,,-99.99,4.000000,,2013-04-02 14:12:00,
2013-04-02 07:22:00,38.0,35.0,30.10,NW,306,6.0,9.0,92,-99.99,,,-99.99,7.000000,,2013-04-02 14:22:00,
2013-04-02 07:32:00,38.0,35.0,30.10,NW,306,6.0,9.0,92,-99.99,,,-99.99,7.000000,,2013-04-02 14:32:00,
2013-04-02 07:52:00,38.0,35.0,30.11,NW,320,7.0,10.0,92,-99.99,,,-99.99,7.000000,,2013-04-02 14:52:00,
2013-04-02 08:02:00,38.0,35.0,30.11,NW,312,7.0,10.0,91,-99.99,,,-99.99,16.000000,,2013-04-02 15:02:00,
2013-04-02 08:11:00,38.0,35.0,30.12,NNW,332,8.0,10.0,91,-99.99,,,-99.99,20.000000,,2013-04-02 15:11:00,
2013-04-02 08:22:00,38.0,35.0,30.12,NNW,334,8.0,12.0,90,-99.99,,,-99.99,15.000000,,2013-04-02 15:22:00,
2013-04-02 08:33:00,38.0,35.0,30.12,NW,326,8.0,10.0,90,-99.99,,,-99.99,47.000000,,2013-04-02 15:33:00,
2013-04-02 08:42:00,38.0,36.0,30.13,NNW,342,8.0,11.0,91,-99.99,,,-99.99,72.000000,,2013-04-02 15:42:00,
2013-04-02 08:54:00,38.0,36.0,30.13,NNW,342,8.0,11.0,91,-99.99,,,-99.99,72.000000,,2013-04-02 15:54:00,
2013-04-02 09:03:00,38.0,36.0,30.13,NNW,337,8.0,11.0,91,-99.99,,,-99.99,88.000000,,2013-04-02 16:03:00,
2013-04-02 09:13:00,39.0,36.0,30.14,NNW,328,7.0,11.0,90,-99.99,,,-99.99,129.000000,,2013-04-02 16:13:00,
2013-04-02 09:24:00,40.0,37.0,30.14,NNW,335,9.0,12.0,89,-99.99,,,-99.99,120.000000,,2013-04-02 16:24:00,
2013-04-02 09:34:00,40.0,36.0,30.14,NNW,334,11.0,15.0,86,-99.99,,,-99.99,145.000000,,2013-04-02 16:34:00,
2013-04-02 09:43:00,40.0,36.0,30.14,NNW,334,10.0,14.0,86,-99.99,,,-99.99,87.000000,,2013-04-02 16:43:00,
2013-04-02 09:52:00,40.0,36.0,30.14,NNW,339,10.0,14.0,86,-99.99,,,-99.99,114.000000,,2013-04-02 16:52:00,
2013-04-02 10:04:00,40.0,36.0,30.14,NNW,339,10.0,14.0,86,-99.99,,,-99.99,114.000000,,2013-04-02 17:04:00,
2013-04-02 10:13:00,40.0,36.0,30.15,NNW,334,11.0,15.0,86,-99.99,,,-99.99,184.000000,,2013-04-02 17:13:00,
2013-04-02 10:24:00,41.0,37.0,30.15,NNW,340,9.0,13.0,86,-99.99,,,-99.99,250.000000,,2013-04-02 17:24:00,
2013-04-02 10:34:00,41.0,37.0,30.15,NNW,336,10.0,14.0,86,-99.99,,,-99.99,345.000000,,2013-04-02 17:34:00,
2013-04-02 10:43:00,42.0,38.0,30.15,NNW,335,11.0,14.0,85,-99.99,,,-99.99,352.000000,,2013-04-02 17:43:00,
2013-04-02 10:53:00,42.0,38.0,30.16,NNW,337,9.0,15.0,84,-99.99,,,-99.99,398.000000,,2013-04-02 17:53:00,
2013-04-02 11:03:00,43.0,38.0,30.16,NNW,343,10.0,15.0,82,-99.99,,,-99.99,607.000000,,2013-04-02 18:03:00,
2013-04-02 11:12:00,45.0,38.0,30.16,NNW,335,12.0,18.0,79,-99.99,,,-99.99,785.000000,,2013-04-02 18:12:00,
2013-04-02 11:23:00,45.0,38.0,30.16,NNW,330,13.0,18.0,78,-99.99,,,-99.99,863.000000,,2013-04-02 18:23:00,
2013-04-02 11:33:00,45.0,38.0,30.16,NNW,330,13.0,18.0,78,-99.99,,,-99.99,863.000000,,2013-04-02 18:33:00,
2013-04-02 11:42:00,47.0,38.0,30.16,NNW,333,12.0,17.0,73,-99.99,,,-99.99,935.000000,,2013-04-02 18:42:00,
2013-04-02 11:53:00,47.0,38.0,30.16,NNW,328,13.0,18.0,72,-99.99,,,-99.99,854.000000,,2013-04-02 18:53:00,
2013-04-02 12:02:00,47.0,38.0,30.16,NNW,340,10.0,16.0,70,-99.99,,,-99.99,570.000000,,2013-04-02 19:02:00,
2013-04-02 12:12:00,47.0,38.0,30.16,NNW,340,10.0,16.0,70,-99.99,,,-99.99,570.000000,,2013-04-02 19:12:00,
2013-04-02 12:22:00,48.0,38.0,30.16,NNW,333,9.0,14.0,68,-99.99,,,-99.99,980.000000,,2013-04-02 19:22:00,
2013-04-02 12:33:00,48.0,38.0,30.16,NNW,333,9.0,14.0,68,-99.99,,,-99.99,980.000000,,2013-04-02 19:33:00,
2013-04-02 12:44:00,49.0,39.0,30.16,NW,322,11.0,16.0,67,-99.99,,,-99.99,944.000000,,2013-04-02 19:44:00,
2013-04-02 12:53:00,49.0,39.0,30.15,NW,313,10.0,16.0,68,-99.99,,,-99.99,374.000000,,2013-04-02 19:53:00,
2013-04-02 13:03:00,48.0,38.0,30.15,NW,315,9.0,12.0,67,-99.99,,,-99.99,201.000000,,2013-04-02 20:03:00,
2013-04-02 13:12:00,49.0,36.0,30.15,NW,326,12.0,20.0,62,-99.99,,,-99.99,832.000000,,2013-04-02 20:12:00,
2013-04-02 13:22:00,51.0,38.0,30.15,NW,318,14.0,18.0,60,-99.99,,,-99.99,891.000000,,2013-04-02 20:22:00,
2013-04-02 13:33:00,51.0,37.0,30.15,NW,306,12.0,16.0,60,-99.99,,,-99.99,608.000000,,2013-04-02 20:33:00,
2013-04-02 13:43:00,51.0,37.0,30.14,NW,318,10.0,17.0,59,-99.99,,,-99.99,720.000000,,2013-04-02 20:43:00,
2013-04-02 13:53:00,52.0,36.0,30.14,NW,313,16.0,23.0,55,-99.99,,,-99.99,702.000000,,2013-04-02 20:53:00,
2013-04-02 14:03:00,52.0,38.0,30.14,NW,304,13.0,19.0,58,-99.99,,,-99.99,670.000000,,2013-04-02 21:03:00,
2013-04-02 14:10:00,53.0,35.0,30.13,NNW,333,12.0,19.0,50,-99.99,,,-99.99,737.000000,,2013-04-02 21:10:00,
2013-04-02 14:13:00,52.0,38.0,30.14,WNW,286,13.0,18.0,61,-99.99,,,-99.99,687.000000,,2013-04-02 21:13:00,
2013-04-02 14:23:00,52.0,37.0,30.13,NW,308,12.0,16.0,57,-99.99,,,-99.99,632.000000,,2013-04-02 21:23:00,
2013-04-02 14:43:00,53.0,37.0,30.13,NW,307,12.0,17.0,56,-99.99,,,-99.99,901.000000,,2013-04-02 21:43:00,
2013-04-02 14:54:00,53.0,36.0,30.13,NW,322,12.0,18.0,53,-99.99,,,-99.99,347.000000,,2013-04-02 21:54:00,
2013-04-02 15:03:00,53.0,35.0,30.13,NNW,333,12.0,19.0,50,-99.99,,,-99.99,737.000000,,2013-04-02 22:03:00,
2013-04-02 15:23:00,54.0,36.0,30.12,NNW,336,11.0,18.0,51,-99.99,,,-99.99,705.000000,,2013-04-02 22:23:00,
2013-04-02 15:33:00,55.0,35.0,30.12,NNW,329,13.0,21.0,47,-99.99,,,-99.99,979.000000,,2013-04-02 22:33:00,
2013-04-02 15:43:00,55.0,35.0,30.12,NW,322,11.0,18.0,47,-99.99,,,-99.99,571.000000,,2013-04-02 22:43:00,
2013-04-02 15:53:00,55.0,35.0,30.12,NW,322,11.0,18.0,47,-99.99,,,-99.99,571.000000,,2013-04-02 22:53:00,
2013-04-02 16:02:00,55.0,35.0,30.11,NW,322,14.0,22.0,46,-99.99,,,-99.99,574.000000,,2013-04-02 23:02:00,
2013-04-02 16:12:00,56.0,34.0,30.11,NW,326,13.0,20.0,43,-99.99,,,-99.99,463.000000,,2013-04-02 23:12:00,
2013-04-02 16:23:00,56.0,34.0,30.11,NW,326,13.0,20.0,43,-99.99,,,-99.99,463.000000,,2013-04-02 23:23:00,
2013-04-02 16:33:00,54.0,34.0,30.11,NW,320,14.0,20.0,45,-99.99,,,-99.99,91.000000,,2013-04-02 23:33:00,
2013-04-02 16:42:00,49.0,36.0,30.12,WNW,285,16.0,21.0,60,-99.99,,,-99.99,81.000000,,2013-04-02 23:42:00,
2013-04-02 16:52:00,50.0,36.0,30.12,WNW,283,16.0,21.0,58,-99.99,,,-99.99,463.000000,,2013-04-02 23:52:00,
2013-04-02 17:03:00,50.0,36.0,30.12,WNW,283,16.0,21.0,58,-99.99,,,-99.99,463.000000,,2013-04-03 00:03:00,
2013-04-02 17:12:00,53.0,34.0,30.12,West,270,16.0,20.0,50,-99.99,,,-99.99,651.000000,,2013-04-03 00:12:00,
2013-04-02 17:23:00,53.0,36.0,30.12,WSW,258,15.0,23.0,54,-99.99,,,-99.99,368.000000,,2013-04-03 00:23:00,
2013-04-02 17:33:00,51.0,37.0,30.12,West,260,11.0,18.0,58,-99.99,,,-99.99,353.000000,,2013-04-03 00:33:00,
2013-04-02 17:44:00,55.0,35.0,30.12,WNW,285,5.0,12.0,47,-99.99,,,-99.99,543.000000,,2013-04-03 00:44:00,
2013-04-02 17:53:00,55.0,35.0,30.12,WNW,285,5.0,12.0,47,-99.99,,,-99.99,543.000000,,2013-04-03 00:53:00,
2013-04-02 18:03:00,56.0,35.0,30.12,West,280,3.0,8.0,45,-99.99,,,-99.99,441.000000,,2013-04-03 01:03:00,
2013-04-02 18:12:00,56.0,34.0,30.12,NW,322,9.0,16.0,43,-99.99,,,-99.99,120.000000,,2013-04-03 01:12:00,
2013-04-02 18:22:00,54.0,31.0,30.12,NW,324,11.0,15.0,42,-99.99,,,-99.99,99.000000,,2013-04-03 01:22:00,
2013-04-02 18:33:00,54.0,31.0,30.12,NW,305,11.0,15.0,40,-99.99,,,-99.99,180.000000,,2013-04-03 01:33:00,
2013-04-02 18:40:00,51.0,37.0,30.14,WNW,285,10.0,17.0,60,-99.99,,,-99.99,62.000000,,2013-04-03 01:40:00,
2013-04-02 18:42:00,54.0,31.0,30.12,NW,317,13.0,17.0,41,-99.99,,,-99.99,110.000000,,2013-04-03 01:42:00,
2013-04-02 18:52:00,53.0,31.0,30.12,NW,314,12.0,17.0,42,-99.99,,,-99.99,81.000000,,2013-04-03 01:52:00,
2013-04-02 19:03:00,52.0,35.0,30.14,WNW,286,10.0,14.0,53,-99.99,,,-99.99,23.000000,,2013-04-03 02:03:00,
2013-04-02 19:13:00,52.0,35.0,30.14,WNW,286,10.0,14.0,53,-99.99,,,-99.99,23.000000,,2013-04-03 02:13:00,
2013-04-02 19:23:00,51.0,37.0,30.14,WNW,285,10.0,17.0,60,-99.99,,,-99.99,62.000000,,2013-04-03 02:23:00,
2013-04-02 19:33:00,51.0,37.0,30.14,WNW,285,10.0,17.0,60,-99.99,,,-99.99,62.000000,,2013-04-03 02:33:00,
2013-04-02 19:40:00,48.0,35.0,30.17,North,11,13.0,22.0,62,-99.99,,,-99.99,1.000000,,2013-04-03 02:40:00,
2013-04-02 19:52:00,49.0,35.0,30.15,NE,48,6.0,12.0,57,-99.99,,,-99.99,7.000000,,2013-04-03 02:52:00,
2013-04-02 20:04:00,49.0,34.0,30.15,North,7,9.0,14.0,56,-99.99,,,-99.99,5.000000,,2013-04-03 03:04:00,
2013-04-02 20:13:00,48.0,36.0,30.16,NW,321,9.0,13.0,62,-99.99,,,-99.99,1.000000,,2013-04-03 03:13:00,
2013-04-02 20:22:00,48.0,35.0,30.17,North,11,13.0,22.0,62,-99.99,,,-99.99,1.000000,,2013-04-03 03:22:00,
2013-04-02 20:35:00,48.0,35.0,30.17,North,11,13.0,22.0,62,-99.99,,,-99.99,1.000000,,2013-04-03 03:35:00,
2013-04-02 20:53:00,46.0,35.0,30.17,NW,320,9.0,13.0,65,-99.99,,,-99.99,0.000000,,2013-04-03 03:53:00,
2013-04-02 21:00:00,44.0,36.0,30.19,WNW,285,4.0,6.0,75,-99.99,,,-99.99,0.000000,,2013-04-03 04:00:00,
2013-04-02 21:03:00,46.0,35.0,30.17,NW,320,9.0,13.0,65,-99.99,,,-99.99,0.000000,,2013-04-03 04:03:00,
2013-04-02 21:12:00,45.0,36.0,30.18,WSW,247,6.0,10.0,73,-99.99,,,-99.99,0.000000,,2013-04-03 04:12:00,
2013-04-02 21:20:00,44.0,36.0,30.20,North,9,1.0,3.0,74,-99.99,,,-99.99,1.000000,,2013-04-03 04:20:00,
2013-04-02 21:23:00,45.0,36.0,30.18,WSW,247,6.0,10.0,73,-99.99,,,-99.99,0.000000,,2013-04-03 04:23:00,
2013-04-02 21:32:00,45.0,36.0,30.18,West,270,4.0,6.0,73,-99.99,,,-99.99,0.000000,,2013-04-03 04:32:00,
2013-04-02 21:42:00,44.0,36.0,30.19,WNW,283,5.0,6.0,74,-99.99,,,-99.99,0.000000,,2013-04-03 04:42:00,
2013-04-02 21:50:00,40.0,35.0,30.21,East,100,3.0,4.0,82,-99.99,,,-99.99,0.000000,,2013-04-03 04:50:00,
2013-04-02 21:53:00,44.0,36.0,30.19,WNW,285,4.0,6.0,75,-99.99,,,-99.99,0.000000,,2013-04-03 04:53:00,
2013-04-02 22:12:00,44.0,36.0,30.20,North,9,1.0,3.0,74,-99.99,,,-99.99,1.000000,,2013-04-03 05:12:00,
2013-04-02 22:30:00,37.0,33.0,30.21,SE,130,6.0,8.0,84,-99.99,,,-99.99,0.000000,,2013-04-03 05:30:00,
2013-04-02 22:32:00,41.0,35.0,30.21,East,98,2.0,4.0,80,-99.99,,,-99.99,0.000000,,2013-04-03 05:32:00,
2013-04-02 22:42:00,40.0,35.0,30.21,East,100,3.0,4.0,82,-99.99,,,-99.99,0.000000,,2013-04-03 05:42:00,
2013-04-02 23:12:00,38.0,33.0,30.22,SSE,152,5.0,7.0,84,-99.99,,,-99.99,0.000000,,2013-04-03 06:12:00,
2013-04-02 23:22:00,37.0,33.0,30.21,SE,130,6.0,8.0,84,-99.99,,,-99.99,0.000000,,2013-04-03 06:22:00,